Gavle, Sweden

9:53 PM CET on December 28, 2014 (GMT +0100)
Bomhus | Change Station
CLOSE
Current Station
Personal Weather Station
Location: Gavle, Gävleborg
Elevation: 30 ft
Nearby Weather Stations

Elev 30 ft 60.66 °N, 17.23 °E | Updated 8 minutes ago

Scattered Clouds
Scattered Clouds
3.3 °F
Feels Like 3 °F
N
0.0
Wind Variable Wind from ESE
Gusts 0.0 mph

Today
High -- | Low -- °F
--% Chance of Precip.
Yesterday
High -- | Low -- °F
Precip. -- in
9:01 AM 2:43 PM
Waxing Crescent, 51% visible
Pressure 30.24 in
Visibility 3.1 miles
Clouds Scattered Clouds 12000 ft
Windchill 3 °F
Dew Point 0 °F
Humidity 87%
Rainfall 0.32 in
Snow Depth Not available.
UV 0 out of 12
Pollen Not available.
Air Quality Not available.
Flu Activity Not available.
METAR ESSD 282020Z AUTO 27003KT 5000 SCT120/// M17/M18 Q1024

More Conditions Fewer Conditions

Pressure 30.24 in
Visibility 3.1 miles
Clouds Scattered Clouds 12000 ft
Windchill 3 °F
Dew Point 0 °F
Humidity 87%
Rainfall 0.32 in
Snow Depth Not available.
UV 0 out of 12
Pollen Not available.
Air Quality Not available.
Flu Activity Not available.
METAR ESSD 282020Z AUTO 27003KT 5000 SCT120/// M17/M18 Q1024

More Conditions Fewer Conditions

10-Day Weather Forecast

Almanac

Astronomy

Dec. 28, 2014 Rise Set
Actual Time
Civil Twilight
Nautical Twilight
Astronomical Twilight
Moon
Length of Visible Light
Length of Day
Tomorrow will be .
, % of the Moon is Illuminated

Today's Extremes

Country Highs Country Lows

Community

WunderPhotos

Upload Photos

1,781,414 photos uploaded!

WunderBlogs® & News

Nearby

Air Quality

  Air Quality AQ Index Pollutant
Not available.

Snow Depth

Station Depth Elevation

Earthquake Activity

City Distance Mag. Time & Date
Minimum magnitude displayed is 2.5.

Coastal Water Temperatures

Place Temperature

Nearby Weather Stations